createdAt,value
2023-01-09T00:01:21.998Z,93295
2023-01-09T00:04:47.314Z,93283
2023-01-09T00:08:12.647Z,93291
2023-01-09T00:11:38.006Z,93289
2023-01-09T00:15:03.310Z,93286
2023-01-09T00:18:28.585Z,93282
2023-01-09T00:21:53.867Z,93273
2023-01-09T00:25:19.202Z,93259
2023-01-09T00:28:44.519Z,93259
2023-01-09T00:32:09.837Z,93264
2023-01-09T00:35:35.148Z,93263
2023-01-09T00:39:00.453Z,93254
2023-01-09T00:42:25.746Z,93258
2023-01-09T00:45:51.257Z,93260
2023-01-09T00:49:16.534Z,93250
2023-01-09T00:52:41.822Z,93254
2023-01-09T00:56:07.141Z,93251
2023-01-09T00:59:32.450Z,93254
2023-01-09T01:02:57.796Z,93238
2023-01-09T01:06:23.109Z,93242
2023-01-09T01:09:48.395Z,93237
2023-01-09T01:13:13.692Z,93238
2023-01-09T01:16:39.011Z,93232
2023-01-09T01:20:04.297Z,93234
2023-01-09T01:23:29.610Z,93237
2023-01-09T01:26:54.840Z,93234
2023-01-09T01:30:20.138Z,93228
2023-01-09T01:33:45.418Z,93228
2023-01-09T01:37:10.709Z,93228
2023-01-09T01:40:36.030Z,93215
2023-01-09T01:44:01.318Z,93209
2023-01-09T01:47:26.607Z,93198
2023-01-09T01:50:51.889Z,93195
2023-01-09T01:54:17.173Z,93188
2023-01-09T01:57:42.470Z,93186
2023-01-09T02:01:07.814Z,93186
2023-01-09T02:04:33.066Z,93181
2023-01-09T02:07:58.377Z,93181
2023-01-09T02:11:23.656Z,93180
2023-01-09T02:14:49.052Z,93173
2023-01-09T02:18:14.230Z,93177
2023-01-09T02:21:39.509Z,93167
2023-01-09T02:25:04.804Z,93163
2023-01-09T02:28:30.108Z,93160
2023-01-09T02:31:55.465Z,93158
2023-01-09T02:35:20.654Z,93151
2023-01-09T02:38:45.972Z,93150
2023-01-09T02:42:11.264Z,93146
2023-01-09T02:45:36.574Z,93145
2023-01-09T02:49:01.868Z,93141
2023-01-09T02:52:27.140Z,93147
2023-01-09T02:55:52.444Z,93135
2023-01-09T02:59:17.779Z,93133
2023-01-09T03:02:43.147Z,93125
2023-01-09T03:06:08.417Z,93127
2023-01-09T03:09:33.664Z,93115
2023-01-09T03:12:59.149Z,93122
2023-01-09T03:16:24.322Z,93122
2023-01-09T03:19:49.527Z,93127
2023-01-09T03:23:14.857Z,93116
2023-01-09T03:26:40.129Z,93110
2023-01-09T03:30:05.427Z,93108
2023-01-09T03:33:30.740Z,93102
2023-01-09T03:36:56.119Z,93091
2023-01-09T03:40:21.470Z,93085
2023-01-09T03:43:46.811Z,93074
2023-01-09T03:47:12.125Z,93075
2023-01-09T03:50:38.485Z,93083
2023-01-09T03:54:03.784Z,93084
2023-01-09T03:57:29.103Z,93085
2023-01-09T04:00:54.520Z,93086
2023-01-09T04:04:19.795Z,93089
2023-01-09T04:07:45.146Z,93092
2023-01-09T04:11:10.435Z,93085
2023-01-09T04:14:35.851Z,93081
2023-01-09T04:18:01.209Z,93082
2023-01-09T04:21:26.522Z,93077
2023-01-09T04:24:51.826Z,93074
2023-01-09T04:28:17.145Z,93074
2023-01-09T04:31:42.608Z,93083
2023-01-09T04:35:07.939Z,93074
2023-01-09T04:38:33.242Z,93072
2023-01-09T04:41:58.474Z,93075
2023-01-09T04:45:23.758Z,93079
2023-01-09T04:48:49.011Z,93078
2023-01-09T04:52:14.233Z,93077
2023-01-09T04:55:39.483Z,93081
2023-01-09T04:59:04.693Z,93078
2023-01-09T05:02:29.946Z,93084
2023-01-09T05:05:55.206Z,93085
2023-01-09T05:09:20.428Z,93090
2023-01-09T05:12:45.712Z,93088
2023-01-09T05:16:11.021Z,93093
2023-01-09T05:19:36.192Z,93087
2023-01-09T05:23:01.450Z,93093
2023-01-09T05:26:26.684Z,93093
2023-01-09T05:29:51.985Z,93108
2023-01-09T05:33:17.205Z,93122
2023-01-09T05:36:42.777Z,93123
2023-01-09T05:40:08.271Z,93127
2023-01-09T05:43:33.629Z,93128
2023-01-09T05:46:59.483Z,93127
2023-01-09T05:50:24.860Z,93129
2023-01-09T05:53:50.512Z,93126
2023-01-09T05:57:16.120Z,93132
2023-01-09T06:00:42.090Z,93138
2023-01-09T06:04:07.692Z,93135
2023-01-09T06:07:33.063Z,93140
2023-01-09T06:10:58.521Z,93143
2023-01-09T06:14:24.007Z,93141
2023-01-09T06:17:49.388Z,93142
2023-01-09T06:21:14.737Z,93144
2023-01-09T06:24:40.049Z,93152
2023-01-09T06:28:05.941Z,93158
2023-01-09T06:31:31.562Z,93160
2023-01-09T06:34:56.677Z,93158
2023-01-09T06:38:22.957Z,93165
2023-01-09T06:41:48.757Z,93173
2023-01-09T06:45:13.556Z,93174
2023-01-09T06:48:38.851Z,93180
2023-01-09T06:52:04.119Z,93186
2023-01-09T06:55:29.497Z,93183
2023-01-09T06:58:54.789Z,93190
2023-01-09T07:02:20.280Z,93190
2023-01-09T07:05:45.730Z,93194
2023-01-09T07:09:10.980Z,93212
2023-01-09T07:12:36.355Z,93210
2023-01-09T07:16:01.731Z,93206
2023-01-09T07:19:27.026Z,93207
2023-01-09T07:22:52.480Z,93213
2023-01-09T07:26:17.784Z,93221
2023-01-09T07:29:43.153Z,93225
2023-01-09T07:33:08.414Z,93232
2023-01-09T07:36:33.743Z,93241
2023-01-09T07:39:59.050Z,93244
2023-01-09T07:43:24.389Z,93252
2023-01-09T07:46:50.346Z,93268
2023-01-09T07:50:15.681Z,93275
2023-01-09T07:53:41.042Z,93272
2023-01-09T07:57:06.437Z,93266
2023-01-09T08:00:33.119Z,93259
2023-01-09T08:03:57.065Z,93262
2023-01-09T08:07:22.360Z,93264
2023-01-09T08:10:47.742Z,93260
2023-01-09T08:14:13.065Z,93264
2023-01-09T08:17:38.384Z,93279
2023-01-09T08:21:03.770Z,93305
2023-01-09T08:24:29.156Z,93312
2023-01-09T08:27:54.467Z,93315
2023-01-09T08:31:19.826Z,93322
2023-01-09T08:34:45.195Z,93328
2023-01-09T08:38:10.552Z,93327
2023-01-09T08:41:35.956Z,93343
2023-01-09T08:45:04.353Z,93342
2023-01-09T08:48:29.639Z,93352
2023-01-09T08:51:54.913Z,93355
2023-01-09T08:55:20.301Z,93353
2023-01-09T08:58:45.669Z,93369
2023-01-09T09:02:10.964Z,93385
2023-01-09T09:05:36.283Z,93387
2023-01-09T09:09:01.627Z,93390
2023-01-09T09:12:26.914Z,93379
2023-01-09T09:15:52.269Z,93387
2023-01-09T09:19:17.504Z,93401
2023-01-09T09:22:42.814Z,93408
2023-01-09T09:26:08.080Z,93410
2023-01-09T09:29:33.386Z,93420
2023-01-09T09:32:58.688Z,93424
2023-01-09T09:36:24.055Z,93432
2023-01-09T09:39:49.330Z,93440
2023-01-09T09:43:14.633Z,93446
2023-01-09T09:46:40.049Z,93456
2023-01-09T09:50:05.263Z,93463
2023-01-09T09:53:30.584Z,93469
2023-01-09T09:56:55.874Z,93476
2023-01-09T10:00:21.176Z,93483
2023-01-09T10:03:46.466Z,93487
2023-01-09T10:07:11.729Z,93485
2023-01-09T10:10:37.068Z,93491
2023-01-09T10:14:04.153Z,93477
2023-01-09T10:17:27.656Z,93461
2023-01-09T10:20:52.956Z,93468
2023-01-09T10:24:18.279Z,93464
2023-01-09T10:27:43.524Z,93462
2023-01-09T10:31:08.926Z,93468
2023-01-09T10:34:34.144Z,93461
2023-01-09T10:37:59.467Z,93456
2023-01-09T10:41:24.864Z,93461
2023-01-09T10:44:50.147Z,93453
2023-01-09T10:48:15.501Z,93458
2023-01-09T10:51:40.724Z,93457
2023-01-09T10:55:06.149Z,93459
2023-01-09T10:58:31.457Z,93460
2023-01-09T11:01:56.848Z,93455
2023-01-09T11:05:22.247Z,93454
2023-01-09T11:08:47.585Z,93455
2023-01-09T11:12:12.894Z,93459
2023-01-09T11:15:38.225Z,93458
2023-01-09T11:19:03.550Z,93449
2023-01-09T11:22:28.920Z,93450
2023-01-09T11:25:54.263Z,93453
2023-01-09T11:29:19.739Z,93457
2023-01-09T11:32:45.200Z,93444
2023-01-09T11:36:10.511Z,93450
2023-01-09T11:39:35.815Z,93455
2023-01-09T11:43:01.164Z,93460
2023-01-09T11:46:26.528Z,93457
2023-01-09T11:49:51.809Z,93454
2023-01-09T11:53:17.118Z,93456
2023-01-09T11:56:42.433Z,93465
2023-01-09T12:00:07.668Z,93474
2023-01-09T12:03:32.996Z,93471
2023-01-09T12:06:58.321Z,93469
2023-01-09T12:10:24.081Z,93469
2023-01-09T12:13:49.391Z,93471
2023-01-09T12:17:15.998Z,93472
2023-01-09T12:20:41.295Z,93476
2023-01-09T12:24:07.673Z,93477
2023-01-09T12:27:32.957Z,93484
2023-01-09T12:30:58.323Z,93485
2023-01-09T12:34:23.629Z,93479
2023-01-09T12:38:04.151Z,93482
2023-01-09T12:41:29.455Z,93482
2023-01-09T12:44:54.797Z,93484
2023-01-09T12:48:20.239Z,93476
2023-01-09T12:51:45.569Z,93482
2023-01-09T12:55:11.099Z,93491
2023-01-09T12:58:36.423Z,93494
2023-01-09T13:02:01.926Z,93496
2023-01-09T13:05:27.269Z,93492
2023-01-09T13:08:52.662Z,93495
2023-01-09T13:12:17.934Z,93505
2023-01-09T13:15:43.516Z,93502
2023-01-09T13:19:08.849Z,93502
2023-01-09T13:22:34.276Z,93498
2023-01-09T13:25:59.825Z,93495
2023-01-09T13:29:25.415Z,93495
2023-01-09T13:32:50.744Z,93503
2023-01-09T13:36:17.067Z,93503
2023-01-09T13:39:41.470Z,93508
2023-01-09T13:43:06.830Z,93504
2023-01-09T13:46:32.164Z,93504
2023-01-09T13:49:57.495Z,93508
2023-01-09T13:53:22.860Z,93516
2023-01-09T13:56:48.272Z,93515
2023-01-09T14:00:13.550Z,93523
2023-01-09T14:03:38.955Z,93528
2023-01-09T14:07:04.366Z,93532
2023-01-09T14:10:29.761Z,93530
2023-01-09T14:13:55.206Z,93537
2023-01-09T14:17:20.506Z,93543
2023-01-09T14:20:45.874Z,93545
2023-01-09T14:24:11.128Z,93551
2023-01-09T14:27:36.602Z,93549
2023-01-09T14:31:01.932Z,93556
2023-01-09T15:06:42.819Z,93587
2023-01-09T15:10:08.164Z,93588
2023-01-09T15:13:33.477Z,93599
2023-01-09T15:16:58.872Z,93605
2023-01-09T15:20:24.196Z,93599
2023-01-09T15:23:49.619Z,93602
2023-01-09T15:27:14.967Z,93596
2023-01-09T15:30:40.288Z,93601
2023-01-09T15:34:05.706Z,93595
2023-01-09T15:37:31.681Z,93596
2023-01-09T15:40:57.012Z,93595
2023-01-09T15:44:22.333Z,93606
2023-01-09T15:47:47.664Z,93614
2023-01-09T15:51:13.198Z,93610
2023-01-09T15:54:38.511Z,93620
2023-01-09T15:58:03.873Z,93616
2023-01-09T16:01:29.202Z,93617
2023-01-09T16:04:54.485Z,93628
2023-01-09T16:08:19.911Z,93634
2023-01-09T16:11:45.244Z,93627
2023-01-09T16:15:10.540Z,93628
2023-01-09T16:18:35.817Z,93630
2023-01-09T16:22:01.059Z,93632
2023-01-09T16:25:26.410Z,93637
2023-01-09T16:28:51.719Z,93643
2023-01-09T16:32:17.001Z,93645
2023-01-09T16:35:42.257Z,93644
2023-01-09T16:39:07.666Z,93655
2023-01-09T16:42:33.012Z,93663
2023-01-09T16:45:58.371Z,93666
2023-01-09T16:49:26.370Z,93671
2023-01-09T16:52:51.695Z,93679
2023-01-09T16:56:17.595Z,93685
2023-01-09T16:59:42.977Z,93683
2023-01-09T17:03:15.894Z,93688
2023-01-09T17:06:42.310Z,93700
2023-01-09T17:10:09.987Z,93700
2023-01-09T17:13:35.669Z,93704
2023-01-09T17:17:02.288Z,93705
2023-01-09T17:20:29.817Z,93713
2023-01-09T17:23:55.477Z,93721
2023-01-09T17:27:21.083Z,93712
2023-01-09T17:30:46.874Z,93714
2023-01-09T17:34:12.454Z,93717
2023-01-09T17:37:38.173Z,93719
2023-01-09T17:41:03.945Z,93721
2023-01-09T17:44:29.610Z,93729
2023-01-09T17:48:00.046Z,93732
2023-01-09T17:51:25.886Z,93733
2023-01-09T17:54:51.660Z,93733
2023-01-09T17:58:17.634Z,93733
2023-01-09T18:01:44.147Z,93734
2023-01-09T18:05:11.714Z,93735
2023-01-09T18:08:37.690Z,93746
2023-01-09T18:12:03.979Z,93752
2023-01-09T18:15:30.011Z,93756
2023-01-09T18:18:56.279Z,93763
2023-01-09T18:22:22.284Z,93758
2023-01-09T18:25:48.407Z,93752
2023-01-09T18:29:14.422Z,93752
2023-01-09T18:32:40.809Z,93754
2023-01-09T18:36:06.760Z,93770
2023-01-09T18:39:32.812Z,93770
2023-01-09T18:42:58.753Z,93778
2023-01-09T18:46:24.783Z,93786
2023-01-09T18:49:50.674Z,93794
2023-01-09T18:53:17.893Z,93806
2023-01-09T18:56:43.792Z,93828
2023-01-09T19:00:09.990Z,93829
2023-01-09T19:03:36.076Z,93833
2023-01-09T19:07:01.685Z,93839
2023-01-09T19:10:27.218Z,93838
2023-01-09T19:13:53.117Z,93845
2023-01-09T19:17:18.997Z,93839
2023-01-09T19:20:45.117Z,93835
2023-01-09T19:24:15.602Z,93833
2023-01-09T19:27:41.634Z,93833
2023-01-09T19:31:07.853Z,93836
2023-01-09T19:34:35.898Z,93832
2023-01-09T19:38:02.005Z,93842
2023-01-09T19:41:28.140Z,93839
2023-01-09T19:44:57.122Z,93852
2023-01-09T19:48:23.418Z,93860
2023-01-09T19:51:49.713Z,93868
2023-01-09T19:55:10.206Z,93872
2023-01-09T19:58:36.286Z,93872
2023-01-09T20:02:02.252Z,93878
2023-01-09T20:05:28.091Z,93885
2023-01-09T20:08:54.270Z,93899
2023-01-09T20:12:20.341Z,93911
2023-01-09T20:15:47.149Z,93904
2023-01-09T20:19:13.276Z,93901
2023-01-09T20:22:27.253Z,93909
2023-01-09T20:25:53.320Z,93916
2023-01-09T20:29:19.361Z,93925
2023-01-09T20:32:45.582Z,93933
2023-01-09T20:36:11.433Z,93941
2023-01-09T20:39:37.404Z,93954
2023-01-09T20:43:03.254Z,93967
2023-01-09T20:46:29.227Z,93968
2023-01-09T20:49:55.291Z,93972
2023-01-09T20:53:21.491Z,93981
2023-01-09T20:56:47.491Z,93991
2023-01-09T21:00:14.403Z,93992
2023-01-09T21:03:40.694Z,93999
2023-01-09T21:07:06.935Z,94008
2023-01-09T21:10:33.571Z,94007
